sensor_id;sensor_type;location;lat;lon;timestamp;P1;durP1;ratioP1;P2;durP2;ratioP2
21239;SDS011;10778;48.962;9.018;2023-06-10T00:02:08;8.18;;;7.38;;
21239;SDS011;10778;48.962;9.018;2023-06-10T00:04:34;8.88;;;7.97;;
21239;SDS011;10778;48.962;9.018;2023-06-10T00:07:05;9.02;;;7.80;;
21239;SDS011;10778;48.962;9.018;2023-06-10T00:09:36;8.57;;;7.55;;
21239;SDS011;10778;48.962;9.018;2023-06-10T00:12:06;8.68;;;7.57;;
21239;SDS011;10778;48.962;9.018;2023-06-10T00:14:36;8.48;;;7.57;;
21239;SDS011;10778;48.962;9.018;2023-06-10T00:17:03;7.88;;;7.18;;
21239;SDS011;10778;48.962;9.018;2023-06-10T00:19:30;9.15;;;7.85;;
21239;SDS011;10778;48.962;9.018;2023-06-10T00:21:56;8.07;;;7.28;;
21239;SDS011;10778;48.962;9.018;2023-06-10T00:24:23;8.65;;;7.65;;
21239;SDS011;10778;48.962;9.018;2023-06-10T00:26:49;8.88;;;7.93;;
21239;SDS011;10778;48.962;9.018;2023-06-10T00:29:15;8.32;;;7.35;;
21239;SDS011;10778;48.962;9.018;2023-06-10T00:31:41;8.10;;;7.25;;
21239;SDS011;10778;48.962;9.018;2023-06-10T00:34:07;10.63;;;7.50;;
21239;SDS011;10778;48.962;9.018;2023-06-10T00:36:33;8.07;;;7.30;;
21239;SDS011;10778;48.962;9.018;2023-06-10T00:39:02;9.82;;;8.20;;
21239;SDS011;10778;48.962;9.018;2023-06-10T00:41:29;9.55;;;8.55;;
21239;SDS011;10778;48.962;9.018;2023-06-10T00:43:56;10.38;;;8.23;;
21239;SDS011;10778;48.962;9.018;2023-06-10T00:46:22;9.27;;;8.35;;
21239;SDS011;10778;48.962;9.018;2023-06-10T00:48:51;9.07;;;8.18;;
21239;SDS011;10778;48.962;9.018;2023-06-10T00:51:17;10.63;;;9.30;;
21239;SDS011;10778;48.962;9.018;2023-06-10T00:53:44;10.05;;;9.00;;
21239;SDS011;10778;48.962;9.018;2023-06-10T00:56:10;10.25;;;8.38;;
21239;SDS011;10778;48.962;9.018;2023-06-10T00:58:37;9.15;;;8.30;;
21239;SDS011;10778;48.962;9.018;2023-06-10T01:01:04;11.40;;;8.75;;
21239;SDS011;10778;48.962;9.018;2023-06-10T01:03:30;10.35;;;8.13;;
21239;SDS011;10778;48.962;9.018;2023-06-10T01:06:00;9.70;;;8.20;;
21239;SDS011;10778;48.962;9.018;2023-06-10T01:09:33;9.52;;;7.70;;
21239;SDS011;10778;48.962;9.018;2023-06-10T01:11:44;10.90;;;8.20;;
21239;SDS011;10778;48.962;9.018;2023-06-10T01:14:13;9.50;;;8.02;;
21239;SDS011;10778;48.962;9.018;2023-06-10T01:16:40;9.23;;;8.23;;
21239;SDS011;10778;48.962;9.018;2023-06-10T01:19:06;9.77;;;8.77;;
21239;SDS011;10778;48.962;9.018;2023-06-10T01:21:33;9.00;;;8.10;;
21239;SDS011;10778;48.962;9.018;2023-06-10T01:23:59;9.82;;;8.65;;
21239;SDS011;10778;48.962;9.018;2023-06-10T01:26:27;9.68;;;8.32;;
21239;SDS011;10778;48.962;9.018;2023-06-10T01:29:01;10.25;;;8.70;;
21239;SDS011;10778;48.962;9.018;2023-06-10T01:31:41;9.50;;;8.60;;
21239;SDS011;10778;48.962;9.018;2023-06-10T01:34:16;9.70;;;8.70;;
21239;SDS011;10778;48.962;9.018;2023-06-10T01:36:47;9.13;;;8.23;;
21239;SDS011;10778;48.962;9.018;2023-06-10T01:39:15;9.52;;;8.52;;
21239;SDS011;10778;48.962;9.018;2023-06-10T01:41:43;10.23;;;9.23;;
21239;SDS011;10778;48.962;9.018;2023-06-10T01:44:09;9.75;;;8.77;;
21239;SDS011;10778;48.962;9.018;2023-06-10T01:46:36;9.43;;;8.43;;
21239;SDS011;10778;48.962;9.018;2023-06-10T01:49:02;9.10;;;8.20;;
21239;SDS011;10778;48.962;9.018;2023-06-10T01:51:28;9.27;;;8.32;;
21239;SDS011;10778;48.962;9.018;2023-06-10T01:53:54;10.32;;;8.32;;
21239;SDS011;10778;48.962;9.018;2023-06-10T01:56:20;10.00;;;8.57;;
21239;SDS011;10778;48.962;9.018;2023-06-10T01:58:46;10.02;;;8.43;;
21239;SDS011;10778;48.962;9.018;2023-06-10T02:01:12;10.23;;;8.50;;
21239;SDS011;10778;48.962;9.018;2023-06-10T02:03:39;11.35;;;8.50;;
21239;SDS011;10778;48.962;9.018;2023-06-10T02:06:05;9.30;;;8.40;;
21239;SDS011;10778;48.962;9.018;2023-06-10T02:08:31;9.50;;;8.45;;
21239;SDS011;10778;48.962;9.018;2023-06-10T02:11:00;10.63;;;8.52;;
21239;SDS011;10778;48.962;9.018;2023-06-10T02:13:29;9.57;;;8.25;;
21239;SDS011;10778;48.962;9.018;2023-06-10T02:15:55;9.23;;;7.93;;
21239;SDS011;10778;48.962;9.018;2023-06-10T02:18:21;9.45;;;8.40;;
21239;SDS011;10778;48.962;9.018;2023-06-10T02:20:47;9.73;;;8.77;;
21239;SDS011;10778;48.962;9.018;2023-06-10T02:23:13;10.32;;;8.30;;
21239;SDS011;10778;48.962;9.018;2023-06-10T02:25:39;9.35;;;8.25;;
21239;SDS011;10778;48.962;9.018;2023-06-10T02:28:05;9.45;;;8.10;;
21239;SDS011;10778;48.962;9.018;2023-06-10T02:30:31;9.18;;;8.27;;
21239;SDS011;10778;48.962;9.018;2023-06-10T02:32:57;11.98;;;9.13;;
21239;SDS011;10778;48.962;9.018;2023-06-10T02:35:25;11.50;;;9.18;;
21239;SDS011;10778;48.962;9.018;2023-06-10T02:37:52;9.15;;;8.18;;
21239;SDS011;10778;48.962;9.018;2023-06-10T02:40:19;9.45;;;8.45;;
21239;SDS011;10778;48.962;9.018;2023-06-10T02:42:45;10.38;;;8.77;;
21239;SDS011;10778;48.962;9.018;2023-06-10T02:45:11;9.57;;;8.68;;
21239;SDS011;10778;48.962;9.018;2023-06-10T02:47:42;10.00;;;8.43;;
21239;SDS011;10778;48.962;9.018;2023-06-10T02:50:10;10.48;;;9.27;;
21239;SDS011;10778;48.962;9.018;2023-06-10T02:52:45;9.48;;;8.52;;
21239;SDS011;10778;48.962;9.018;2023-06-10T02:55:11;9.27;;;8.30;;
21239;SDS011;10778;48.962;9.018;2023-06-10T02:57:40;10.30;;;8.88;;
21239;SDS011;10778;48.962;9.018;2023-06-10T03:00:07;9.05;;;8.15;;
21239;SDS011;10778;48.962;9.018;2023-06-10T03:02:38;8.68;;;7.88;;
21239;SDS011;10778;48.962;9.018;2023-06-10T03:05:06;9.68;;;8.70;;
21239;SDS011;10778;48.962;9.018;2023-06-10T03:07:37;8.95;;;8.07;;
21239;SDS011;10778;48.962;9.018;2023-06-10T03:10:04;9.25;;;8.35;;
21239;SDS011;10778;48.962;9.018;2023-06-10T03:12:32;8.95;;;8.05;;
21239;SDS011;10778;48.962;9.018;2023-06-10T03:14:58;8.88;;;7.97;;
21239;SDS011;10778;48.962;9.018;2023-06-10T03:17:24;9.10;;;8.23;;
21239;SDS011;10778;48.962;9.018;2023-06-10T03:19:50;9.30;;;8.40;;
21239;SDS011;10778;48.962;9.018;2023-06-10T03:22:16;9.10;;;8.20;;
21239;SDS011;10778;48.962;9.018;2023-06-10T03:24:52;9.48;;;8.48;;
21239;SDS011;10778;48.962;9.018;2023-06-10T03:27:19;10.57;;;8.48;;
21239;SDS011;10778;48.962;9.018;2023-06-10T03:29:49;9.05;;;8.15;;
21239;SDS011;10778;48.962;9.018;2023-06-10T03:32:16;10.27;;;8.45;;
21239;SDS011;10778;48.962;9.018;2023-06-10T03:34:43;10.68;;;8.60;;
21239;SDS011;10778;48.962;9.018;2023-06-10T03:37:10;9.68;;;8.48;;
21239;SDS011;10778;48.962;9.018;2023-06-10T03:39:36;9.93;;;8.93;;
21239;SDS011;10778;48.962;9.018;2023-06-10T03:42:03;10.63;;;8.60;;
21239;SDS011;10778;48.962;9.018;2023-06-10T03:44:31;10.35;;;9.20;;
21239;SDS011;10778;48.962;9.018;2023-06-10T03:46:57;9.63;;;8.70;;
21239;SDS011;10778;48.962;9.018;2023-06-10T03:49:24;9.40;;;8.50;;
21239;SDS011;10778;48.962;9.018;2023-06-10T03:51:53;9.38;;;8.48;;
21239;SDS011;10778;48.962;9.018;2023-06-10T03:54:20;10.48;;;8.90;;
21239;SDS011;10778;48.962;9.018;2023-06-10T03:56:46;9.70;;;8.48;;
21239;SDS011;10778;48.962;9.018;2023-06-10T03:59:14;10.40;;;8.63;;
21239;SDS011;10778;48.962;9.018;2023-06-10T04:01:40;9.90;;;8.70;;
21239;SDS011;10778;48.962;9.018;2023-06-10T04:04:07;9.93;;;8.90;;
21239;SDS011;10778;48.962;9.018;2023-06-10T04:06:34;10.65;;;9.45;;
21239;SDS011;10778;48.962;9.018;2023-06-10T04:09:00;10.18;;;9.18;;
21239;SDS011;10778;48.962;9.018;2023-06-10T04:11:28;10.77;;;9.57;;
21239;SDS011;10778;48.962;9.018;2023-06-10T04:13:55;10.52;;;9.07;;
21239;SDS011;10778;48.962;9.018;2023-06-10T04:16:21;9.80;;;8.90;;
21239;SDS011;10778;48.962;9.018;2023-06-10T04:18:48;9.80;;;8.80;;
21239;SDS011;10778;48.962;9.018;2023-06-10T04:21:16;9.35;;;8.45;;
21239;SDS011;10778;48.962;9.018;2023-06-10T04:23:42;9.30;;;8.40;;
21239;SDS011;10778;48.962;9.018;2023-06-10T04:26:09;10.13;;;8.35;;
21239;SDS011;10778;48.962;9.018;2023-06-10T04:28:37;9.23;;;8.32;;
21239;SDS011;10778;48.962;9.018;2023-06-10T04:31:03;10.73;;;8.30;;
21239;SDS011;10778;48.962;9.018;2023-06-10T04:33:30;9.18;;;8.15;;
21239;SDS011;10778;48.962;9.018;2023-06-10T04:35:57;9.75;;;8.50;;
21239;SDS011;10778;48.962;9.018;2023-06-10T04:38:26;9.25;;;8.35;;
21239;SDS011;10778;48.962;9.018;2023-06-10T04:40:52;9.80;;;8.23;;
21239;SDS011;10778;48.962;9.018;2023-06-10T04:43:20;9.65;;;8.15;;
21239;SDS011;10778;48.962;9.018;2023-06-10T04:45:46;8.73;;;7.82;;
21239;SDS011;10778;48.962;9.018;2023-06-10T04:48:12;8.88;;;7.78;;
21239;SDS011;10778;48.962;9.018;2023-06-10T04:50:39;9.60;;;8.55;;
21239;SDS011;10778;48.962;9.018;2023-06-10T04:53:05;9.00;;;8.07;;
21239;SDS011;10778;48.962;9.018;2023-06-10T04:55:36;10.00;;;8.05;;
21239;SDS011;10778;48.962;9.018;2023-06-10T04:58:02;8.43;;;7.63;;
21239;SDS011;10778;48.962;9.018;2023-06-10T05:00:28;8.43;;;7.50;;
21239;SDS011;10778;48.962;9.018;2023-06-10T05:02:54;8.23;;;7.22;;
21239;SDS011;10778;48.962;9.018;2023-06-10T05:05:21;9.10;;;7.97;;
21239;SDS011;10778;48.962;9.018;2023-06-10T05:07:47;8.68;;;7.35;;
21239;SDS011;10778;48.962;9.018;2023-06-10T05:10:13;8.10;;;7.10;;
21239;SDS011;10778;48.962;9.018;2023-06-10T05:12:39;7.78;;;6.95;;
21239;SDS011;10778;48.962;9.018;2023-06-10T05:15:06;10.60;;;7.05;;
21239;SDS011;10778;48.962;9.018;2023-06-10T05:17:33;7.60;;;6.80;;
21239;SDS011;10778;48.962;9.018;2023-06-10T05:20:01;8.52;;;7.13;;
21239;SDS011;10778;48.962;9.018;2023-06-10T05:22:27;7.47;;;6.63;;
21239;SDS011;10778;48.962;9.018;2023-06-10T05:24:53;7.35;;;6.65;;
21239;SDS011;10778;48.962;9.018;2023-06-10T05:27:19;6.95;;;6.25;;
21239;SDS011;10778;48.962;9.018;2023-06-10T05:29:45;7.60;;;6.38;;
21239;SDS011;10778;48.962;9.018;2023-06-10T05:32:14;6.90;;;6.20;;
21239;SDS011;10778;48.962;9.018;2023-06-10T05:34:40;8.38;;;6.45;;
21239;SDS011;10778;48.962;9.018;2023-06-10T05:37:06;9.73;;;6.32;;
21239;SDS011;10778;48.962;9.018;2023-06-10T05:39:32;8.20;;;6.40;;
21239;SDS011;10778;48.962;9.018;2023-06-10T05:41:58;7.88;;;6.13;;
21239;SDS011;10778;48.962;9.018;2023-06-10T05:44:25;9.32;;;6.43;;
21239;SDS011;10778;48.962;9.018;2023-06-10T05:46:51;6.95;;;5.55;;
21239;SDS011;10778;48.962;9.018;2023-06-10T05:49:17;7.13;;;6.00;;
21239;SDS011;10778;48.962;9.018;2023-06-10T05:51:43;7.28;;;5.95;;
21239;SDS011;10778;48.962;9.018;2023-06-10T05:54:09;6.80;;;5.95;;
21239;SDS011;10778;48.962;9.018;2023-06-10T05:56:35;8.50;;;5.90;;
21239;SDS011;10778;48.962;9.018;2023-06-10T05:59:01;6.80;;;6.10;;
21239;SDS011;10778;48.962;9.018;2023-06-10T06:01:27;6.10;;;5.22;;
21239;SDS011;10778;48.962;9.018;2023-06-10T06:03:53;6.13;;;5.60;;
21239;SDS011;10778;48.962;9.018;2023-06-10T06:06:19;8.52;;;5.22;;
21239;SDS011;10778;48.962;9.018;2023-06-10T06:08:46;5.63;;;5.13;;
21239;SDS011;10778;48.962;9.018;2023-06-10T06:11:12;5.80;;;5.28;;
21239;SDS011;10778;48.962;9.018;2023-06-10T06:13:39;6.50;;;5.60;;
21239;SDS011;10778;48.962;9.018;2023-06-10T06:16:05;6.40;;;5.75;;
21239;SDS011;10778;48.962;9.018;2023-06-10T06:18:31;6.38;;;5.78;;
21239;SDS011;10778;48.962;9.018;2023-06-10T06:20:57;6.13;;;5.50;;
21239;SDS011;10778;48.962;9.018;2023-06-10T06:23:23;8.13;;;5.60;;
21239;SDS011;10778;48.962;9.018;2023-06-10T06:25:48;6.22;;;5.45;;
21239;SDS011;10778;48.962;9.018;2023-06-10T06:28:14;6.20;;;5.60;;
21239;SDS011;10778;48.962;9.018;2023-06-10T06:30:40;7.13;;;5.40;;
21239;SDS011;10778;48.962;9.018;2023-06-10T06:33:06;5.82;;;5.22;;
21239;SDS011;10778;48.962;9.018;2023-06-10T06:35:33;7.07;;;5.85;;
21239;SDS011;10778;48.962;9.018;2023-06-10T06:37:59;6.07;;;5.47;;
21239;SDS011;10778;48.962;9.018;2023-06-10T06:40:27;6.30;;;5.70;;
21239;SDS011;10778;48.962;9.018;2023-06-10T06:42:53;5.75;;;5.15;;
21239;SDS011;10778;48.962;9.018;2023-06-10T06:45:41;6.28;;;5.68;;
21239;SDS011;10778;48.962;9.018;2023-06-10T06:48:06;5.78;;;5.20;;
21239;SDS011;10778;48.962;9.018;2023-06-10T06:50:32;6.13;;;5.53;;
21239;SDS011;10778;48.962;9.018;2023-06-10T06:52:58;6.18;;;5.60;;
21239;SDS011;10778;48.962;9.018;2023-06-10T06:55:24;6.38;;;5.05;;
21239;SDS011;10778;48.962;9.018;2023-06-10T06:57:50;6.38;;;5.78;;
21239;SDS011;10778;48.962;9.018;2023-06-10T07:00:16;5.88;;;5.28;;
21239;SDS011;10778;48.962;9.018;2023-06-10T07:02:43;5.90;;;5.30;;
21239;SDS011;10778;48.962;9.018;2023-06-10T07:05:09;6.35;;;5.20;;
21239;SDS011;10778;48.962;9.018;2023-06-10T07:07:35;6.60;;;5.88;;
21239;SDS011;10778;48.962;9.018;2023-06-10T07:10:01;6.00;;;5.40;;
21239;SDS011;10778;48.962;9.018;2023-06-10T07:12:27;7.07;;;5.70;;
21239;SDS011;10778;48.962;9.018;2023-06-10T07:14:53;5.43;;;4.93;;
21239;SDS011;10778;48.962;9.018;2023-06-10T07:17:19;5.60;;;5.10;;
21239;SDS011;10778;48.962;9.018;2023-06-10T07:19:45;6.47;;;5.55;;
21239;SDS011;10778;48.962;9.018;2023-06-10T07:22:11;5.75;;;5.25;;
21239;SDS011;10778;48.962;9.018;2023-06-10T07:24:37;5.53;;;5.03;;
21239;SDS011;10778;48.962;9.018;2023-06-10T07:27:03;5.68;;;5.18;;
21239;SDS011;10778;48.962;9.018;2023-06-10T07:29:29;5.93;;;5.38;;
21239;SDS011;10778;48.962;9.018;2023-06-10T07:31:55;6.53;;;5.78;;
21239;SDS011;10778;48.962;9.018;2023-06-10T07:34:21;5.72;;;5.13;;
21239;SDS011;10778;48.962;9.018;2023-06-10T07:36:47;6.13;;;4.90;;
21239;SDS011;10778;48.962;9.018;2023-06-10T07:39:13;5.50;;;5.00;;
21239;SDS011;10778;48.962;9.018;2023-06-10T07:41:39;5.15;;;4.75;;
21239;SDS011;10778;48.962;9.018;2023-06-10T07:44:05;6.10;;;5.50;;
21239;SDS011;10778;48.962;9.018;2023-06-10T07:46:31;5.63;;;5.05;;
21239;SDS011;10778;48.962;9.018;2023-06-10T07:48:57;6.00;;;5.40;;
21239;SDS011;10778;48.962;9.018;2023-06-10T07:51:23;5.53;;;5.03;;
21239;SDS011;10778;48.962;9.018;2023-06-10T07:53:49;5.45;;;4.95;;
21239;SDS011;10778;48.962;9.018;2023-06-10T07:56:15;5.82;;;4.80;;
21239;SDS011;10778;48.962;9.018;2023-06-10T07:58:41;5.40;;;4.90;;
21239;SDS011;10778;48.962;9.018;2023-06-10T08:01:07;6.78;;;5.15;;
21239;SDS011;10778;48.962;9.018;2023-06-10T08:03:34;5.72;;;5.10;;
21239;SDS011;10778;48.962;9.018;2023-06-10T08:09:48;5.93;;;5.32;;
21239;SDS011;10778;48.962;9.018;2023-06-10T08:12:14;5.85;;;5.35;;
21239;SDS011;10778;48.962;9.018;2023-06-10T08:14:43;6.03;;;5.47;;
21239;SDS011;10778;48.962;9.018;2023-06-10T08:17:09;6.07;;;5.35;;
21239;SDS011;10778;48.962;9.018;2023-06-10T08:19:35;6.38;;;5.20;;
21239;SDS011;10778;48.962;9.018;2023-06-10T08:22:01;6.10;;;5.50;;
21239;SDS011;10778;48.962;9.018;2023-06-10T08:24:26;5.72;;;5.22;;
21239;SDS011;10778;48.962;9.018;2023-06-10T08:26:52;6.10;;;5.60;;
21239;SDS011;10778;48.962;9.018;2023-06-10T08:29:18;5.63;;;4.93;;
21239;SDS011;10778;48.962;9.018;2023-06-10T08:31:44;6.28;;;5.68;;
21239;SDS011;10778;48.962;9.018;2023-06-10T08:34:10;6.13;;;5.55;;
21239;SDS011;10778;48.962;9.018;2023-06-10T08:36:37;6.88;;;5.22;;
21239;SDS011;10778;48.962;9.018;2023-06-10T08:39:03;6.05;;;5.45;;
21239;SDS011;10778;48.962;9.018;2023-06-10T08:41:30;5.57;;;5.03;;
21239;SDS011;10778;48.962;9.018;2023-06-10T08:44:08;5.72;;;5.22;;
21239;SDS011;10778;48.962;9.018;2023-06-10T08:46:38;5.65;;;5.15;;
21239;SDS011;10778;48.962;9.018;2023-06-10T08:49:10;6.15;;;5.43;;
21239;SDS011;10778;48.962;9.018;2023-06-10T08:51:39;6.70;;;6.10;;
21239;SDS011;10778;48.962;9.018;2023-06-10T08:54:27;5.53;;;5.03;;
21239;SDS011;10778;48.962;9.018;2023-06-10T08:56:55;6.63;;;5.30;;
21239;SDS011;10778;48.962;9.018;2023-06-10T08:59:24;6.15;;;5.55;;
21239;SDS011;10778;48.962;9.018;2023-06-10T09:01:50;5.93;;;5.35;;
21239;SDS011;10778;48.962;9.018;2023-06-10T09:04:18;6.43;;;5.20;;
21239;SDS011;10778;48.962;9.018;2023-06-10T09:06:44;5.90;;;5.30;;
21239;SDS011;10778;48.962;9.018;2023-06-10T09:09:12;11.40;;;5.93;;
21239;SDS011;10778;48.962;9.018;2023-06-10T09:11:43;6.70;;;4.93;;
21239;SDS011;10778;48.962;9.018;2023-06-10T09:14:09;5.57;;;5.05;;
21239;SDS011;10778;48.962;9.018;2023-06-10T09:16:35;7.22;;;5.78;;
21239;SDS011;10778;48.962;9.018;2023-06-10T09:19:03;6.38;;;5.30;;
21239;SDS011;10778;48.962;9.018;2023-06-10T09:21:36;6.22;;;5.40;;
21239;SDS011;10778;48.962;9.018;2023-06-10T09:24:02;6.47;;;5.28;;
21239;SDS011;10778;48.962;9.018;2023-06-10T09:26:30;6.22;;;5.50;;
21239;SDS011;10778;48.962;9.018;2023-06-10T09:29:05;7.10;;;5.00;;
21239;SDS011;10778;48.962;9.018;2023-06-10T09:31:34;6.43;;;5.57;;
21239;SDS011;10778;48.962;9.018;2023-06-10T09:34:08;8.07;;;5.75;;
21239;SDS011;10778;48.962;9.018;2023-06-10T09:36:38;6.38;;;5.78;;
21239;SDS011;10778;48.962;9.018;2023-06-10T09:39:06;6.25;;;5.55;;
21239;SDS011;10778;48.962;9.018;2023-06-10T09:41:44;6.93;;;5.70;;
21239;SDS011;10778;48.962;9.018;2023-06-10T09:44:15;6.15;;;5.53;;
21239;SDS011;10778;48.962;9.018;2023-06-10T09:46:48;6.07;;;5.47;;
21239;SDS011;10778;48.962;9.018;2023-06-10T09:49:16;6.18;;;5.57;;
21239;SDS011;10778;48.962;9.018;2023-06-10T09:51:49;6.28;;;5.40;;
21239;SDS011;10778;48.962;9.018;2023-06-10T09:54:19;5.93;;;5.32;;
21239;SDS011;10778;48.962;9.018;2023-06-10T09:56:52;6.10;;;5.50;;
21239;SDS011;10778;48.962;9.018;2023-06-10T09:59:28;6.25;;;5.65;;
21239;SDS011;10778;48.962;9.018;2023-06-10T10:01:56;7.63;;;5.70;;
21239;SDS011;10778;48.962;9.018;2023-06-10T10:04:26;6.70;;;5.65;;
21239;SDS011;10778;48.962;9.018;2023-06-10T10:06:52;6.75;;;5.43;;
21239;SDS011;10778;48.962;9.018;2023-06-10T10:09:18;6.30;;;5.70;;
21239;SDS011;10778;48.962;9.018;2023-06-10T10:11:44;6.57;;;5.68;;
21239;SDS011;10778;48.962;9.018;2023-06-10T10:14:11;6.78;;;5.75;;
21239;SDS011;10778;48.962;9.018;2023-06-10T10:16:40;6.38;;;5.32;;
21239;SDS011;10778;48.962;9.018;2023-06-10T10:19:07;6.03;;;5.43;;
21239;SDS011;10778;48.962;9.018;2023-06-10T10:22:10;6.15;;;5.20;;
21239;SDS011;10778;48.962;9.018;2023-06-10T10:24:37;4.95;;;4.45;;
21239;SDS011;10778;48.962;9.018;2023-06-10T10:27:07;5.03;;;4.25;;
21239;SDS011;10778;48.962;9.018;2023-06-10T10:29:42;5.43;;;4.60;;
21239;SDS011;10778;48.962;9.018;2023-06-10T10:32:13;7.13;;;4.60;;
21239;SDS011;10778;48.962;9.018;2023-06-10T10:37:31;6.45;;;4.40;;
21239;SDS011;10778;48.962;9.018;2023-06-10T10:39:57;4.63;;;4.10;;
21239;SDS011;10778;48.962;9.018;2023-06-10T10:42:25;4.72;;;4.32;;
21239;SDS011;10778;48.962;9.018;2023-06-10T10:44:52;4.90;;;4.50;;
21239;SDS011;10778;48.962;9.018;2023-06-10T10:47:21;4.55;;;4.15;;
21239;SDS011;10778;48.962;9.018;2023-06-10T10:49:51;4.78;;;4.38;;
21239;SDS011;10778;48.962;9.018;2023-06-10T10:52:20;4.95;;;4.45;;
21239;SDS011;10778;48.962;9.018;2023-06-10T10:54:46;4.85;;;4.35;;
21239;SDS011;10778;48.962;9.018;2023-06-10T10:57:22;7.28;;;4.53;;
21239;SDS011;10778;48.962;9.018;2023-06-10T11:02:32;6.15;;;5.32;;
21239;SDS011;10778;48.962;9.018;2023-06-10T11:05:00;5.50;;;5.00;;
21239;SDS011;10778;48.962;9.018;2023-06-10T11:07:26;5.55;;;4.82;;
21239;SDS011;10778;48.962;9.018;2023-06-10T11:12:24;5.32;;;4.93;;
21239;SDS011;10778;48.962;9.018;2023-06-10T11:14:53;5.03;;;4.55;;
21239;SDS011;10778;48.962;9.018;2023-06-10T11:17:21;5.47;;;4.50;;
21239;SDS011;10778;48.962;9.018;2023-06-10T11:19:47;6.03;;;4.28;;
21239;SDS011;10778;48.962;9.018;2023-06-10T11:22:16;5.53;;;4.53;;
21239;SDS011;10778;48.962;9.018;2023-06-10T11:24:47;8.07;;;4.85;;
21239;SDS011;10778;48.962;9.018;2023-06-10T11:27:20;5.40;;;4.90;;
21239;SDS011;10778;48.962;9.018;2023-06-10T11:32:33;5.43;;;4.90;;
21239;SDS011;10778;48.962;9.018;2023-06-10T11:35:02;5.65;;;5.00;;
21239;SDS011;10778;48.962;9.018;2023-06-10T11:37:29;4.80;;;4.40;;
21239;SDS011;10778;48.962;9.018;2023-06-10T11:39:55;4.97;;;4.47;;
21239;SDS011;10778;48.962;9.018;2023-06-10T11:42:22;7.25;;;4.68;;
21239;SDS011;10778;48.962;9.018;2023-06-10T11:44:51;4.53;;;4.13;;
21239;SDS011;10778;48.962;9.018;2023-06-10T11:47:19;5.15;;;4.10;;
21239;SDS011;10778;48.962;9.018;2023-06-10T11:49:46;4.50;;;4.10;;
21239;SDS011;10778;48.962;9.018;2023-06-10T11:52:28;4.90;;;3.95;;
21239;SDS011;10778;48.962;9.018;2023-06-10T11:54:55;5.90;;;4.60;;
21239;SDS011;10778;48.962;9.018;2023-06-10T11:57:21;5.00;;;4.50;;
21239;SDS011;10778;48.962;9.018;2023-06-10T11:59:47;5.00;;;4.50;;
21239;SDS011;10778;48.962;9.018;2023-06-10T12:02:17;4.70;;;4.30;;
21239;SDS011;10778;48.962;9.018;2023-06-10T12:04:44;5.72;;;4.60;;
21239;SDS011;10778;48.962;9.018;2023-06-10T12:07:16;4.80;;;4.40;;
21239;SDS011;10778;48.962;9.018;2023-06-10T12:09:45;4.63;;;4.10;;
21239;SDS011;10778;48.962;9.018;2023-06-10T12:12:11;5.10;;;4.60;;
21239;SDS011;10778;48.962;9.018;2023-06-10T12:19:59;4.53;;;4.13;;
21239;SDS011;10778;48.962;9.018;2023-06-10T12:22:27;5.03;;;3.97;;
21239;SDS011;10778;48.962;9.018;2023-06-10T12:25:02;5.50;;;4.00;;
21239;SDS011;10778;48.962;9.018;2023-06-10T12:27:30;5.38;;;4.43;;
21239;SDS011;10778;48.962;9.018;2023-06-10T12:29:57;4.65;;;4.25;;
21239;SDS011;10778;48.962;9.018;2023-06-10T12:32:39;4.78;;;4.30;;
21239;SDS011;10778;48.962;9.018;2023-06-10T12:35:07;4.60;;;4.20;;
21239;SDS011;10778;48.962;9.018;2023-06-10T12:37:34;5.32;;;4.10;;
21239;SDS011;10778;48.962;9.018;2023-06-10T12:40:00;4.43;;;4.03;;
21239;SDS011;10778;48.962;9.018;2023-06-10T12:42:29;4.75;;;3.88;;
21239;SDS011;10778;48.962;9.018;2023-06-10T12:44:55;4.18;;;3.88;;
21239;SDS011;10778;48.962;9.018;2023-06-10T12:47:32;4.45;;;3.80;;
21239;SDS011;10778;48.962;9.018;2023-06-10T12:50:03;3.83;;;3.53;;
21239;SDS011;10778;48.962;9.018;2023-06-10T12:52:30;5.20;;;4.20;;
21239;SDS011;10778;48.962;9.018;2023-06-10T12:54:57;4.00;;;3.70;;
21239;SDS011;10778;48.962;9.018;2023-06-10T12:57:24;4.43;;;3.90;;
21239;SDS011;10778;48.962;9.018;2023-06-10T12:59:50;4.15;;;3.75;;
21239;SDS011;10778;48.962;9.018;2023-06-10T13:02:18;3.95;;;3.65;;
21239;SDS011;10778;48.962;9.018;2023-06-10T13:04:49;5.40;;;4.05;;
21239;SDS011;10778;48.962;9.018;2023-06-10T13:07:16;4.47;;;4.05;;
21239;SDS011;10778;48.962;9.018;2023-06-10T13:09:43;4.50;;;4.10;;
21239;SDS011;10778;48.962;9.018;2023-06-10T13:12:09;4.70;;;3.65;;
21239;SDS011;10778;48.962;9.018;2023-06-10T13:14:36;4.65;;;4.07;;
21239;SDS011;10778;48.962;9.018;2023-06-10T13:17:06;5.40;;;3.90;;
21239;SDS011;10778;48.962;9.018;2023-06-10T13:19:32;4.20;;;3.80;;
21239;SDS011;10778;48.962;9.018;2023-06-10T13:21:59;4.35;;;3.80;;
21239;SDS011;10778;48.962;9.018;2023-06-10T13:24:25;4.30;;;3.90;;
21239;SDS011;10778;48.962;9.018;2023-06-10T13:26:51;4.18;;;3.33;;
21239;SDS011;10778;48.962;9.018;2023-06-10T13:29:17;3.25;;;3.03;;
21239;SDS011;10778;48.962;9.018;2023-06-10T13:31:43;3.55;;;3.17;;
21239;SDS011;10778;48.962;9.018;2023-06-10T13:34:09;3.17;;;2.88;;
21239;SDS011;10778;48.962;9.018;2023-06-10T13:36:36;5.90;;;3.60;;
21239;SDS011;10778;48.962;9.018;2023-06-10T13:39:02;3.85;;;3.55;;
21239;SDS011;10778;48.962;9.018;2023-06-10T13:41:28;4.78;;;3.50;;
21239;SDS011;10778;48.962;9.018;2023-06-10T13:43:55;3.85;;;3.45;;
21239;SDS011;10778;48.962;9.018;2023-06-10T13:46:21;3.35;;;3.03;;
21239;SDS011;10778;48.962;9.018;2023-06-10T13:48:47;3.53;;;3.10;;
21239;SDS011;10778;48.962;9.018;2023-06-10T13:51:13;3.65;;;3.35;;
21239;SDS011;10778;48.962;9.018;2023-06-10T13:53:39;3.30;;;3.00;;
21239;SDS011;10778;48.962;9.018;2023-06-10T13:56:05;3.70;;;3.40;;
21239;SDS011;10778;48.962;9.018;2023-06-10T13:58:32;3.67;;;3.05;;
21239;SDS011;10778;48.962;9.018;2023-06-10T14:01:04;3.60;;;3.30;;
21239;SDS011;10778;48.962;9.018;2023-06-10T14:03:30;4.45;;;3.38;;
21239;SDS011;10778;48.962;9.018;2023-06-10T14:05:56;3.72;;;3.40;;
21239;SDS011;10778;48.962;9.018;2023-06-10T14:08:22;3.80;;;3.35;;
21239;SDS011;10778;48.962;9.018;2023-06-10T14:10:49;3.80;;;3.50;;
21239;SDS011;10778;48.962;9.018;2023-06-10T14:13:16;4.35;;;3.70;;
21239;SDS011;10778;48.962;9.018;2023-06-10T14:15:42;3.83;;;3.20;;
21239;SDS011;10778;48.962;9.018;2023-06-10T14:18:09;3.70;;;3.40;;
21239;SDS011;10778;48.962;9.018;2023-06-10T14:20:35;5.90;;;3.80;;
21239;SDS011;10778;48.962;9.018;2023-06-10T14:23:02;3.97;;;3.58;;
21239;SDS011;10778;48.962;9.018;2023-06-10T14:25:27;4.97;;;3.30;;
21239;SDS011;10778;48.962;9.018;2023-06-10T14:27:53;4.40;;;3.50;;
21239;SDS011;10778;48.962;9.018;2023-06-10T14:30:19;5.53;;;3.40;;
21239;SDS011;10778;48.962;9.018;2023-06-10T14:32:46;4.13;;;3.70;;
21239;SDS011;10778;48.962;9.018;2023-06-10T14:35:11;4.13;;;3.72;;
21239;SDS011;10778;48.962;9.018;2023-06-10T14:37:37;3.70;;;3.30;;
21239;SDS011;10778;48.962;9.018;2023-06-10T14:40:04;3.90;;;3.50;;
21239;SDS011;10778;48.962;9.018;2023-06-10T14:42:31;3.70;;;3.40;;
21239;SDS011;10778;48.962;9.018;2023-06-10T14:44:58;3.88;;;3.55;;
21239;SDS011;10778;48.962;9.018;2023-06-10T14:47:24;4.38;;;3.80;;
21239;SDS011;10778;48.962;9.018;2023-06-10T14:49:50;3.70;;;3.40;;
21239;SDS011;10778;48.962;9.018;2023-06-10T14:52:16;4.20;;;3.80;;
21239;SDS011;10778;48.962;9.018;2023-06-10T14:54:42;4.35;;;3.22;;
21239;SDS011;10778;48.962;9.018;2023-06-10T14:57:08;5.78;;;3.30;;
21239;SDS011;10778;48.962;9.018;2023-06-10T14:59:34;3.47;;;3.17;;
21239;SDS011;10778;48.962;9.018;2023-06-10T15:02:00;3.40;;;3.08;;
21239;SDS011;10778;48.962;9.018;2023-06-10T15:04:27;4.05;;;3.30;;
21239;SDS011;10778;48.962;9.018;2023-06-10T15:06:53;4.32;;;3.40;;
21239;SDS011;10778;48.962;9.018;2023-06-10T15:09:19;3.85;;;3.03;;